Time;durP1;ratioP1;P1;durP2;ratioP2;P2;SDS_P1;SDS_P2;PMS_P1;PMS_P2;Temp;Humidity;BMP_temperature;BMP_pressure;BME280_temperature;BME280_humidity;BME280_pressure;Samples;Min_cycle;Max_cycle;Signal;HPM_P1;HPM_P2
2022/03/01 00:02:30;;;;;;;31.90;12.98;;;3.20;45.40;;;;;;7370641;19;20138;-46
2022/03/01 00:05:01;;;;;;;30.33;13.65;;;3.10;45.50;;;;;;7374419;19;20206;-44
2022/03/01 00:07:33;;;;;;;24.95;10.98;;;3.10;45.80;;;;;;7377356;19;20205;-44
2022/03/01 00:10:02;;;;;;;18.92;9.18;;;3.00;46.20;;;;;;7375559;19;20271;-44
2022/03/01 00:12:34;;;;;;;24.10;10.20;;;2.90;46.50;;;;;;7370278;19;20223;-44
2022/03/01 00:15:04;;;;;;;35.53;14.95;;;3.00;46.60;;;;;;7371382;19;20146;-44
2022/03/01 00:17:36;;;;;;;21.33;9.07;;;2.90;46.70;;;;;;7374186;19;20614;-44
2022/03/01 00:20:09;;;;;;;28.25;10.55;;;3.00;46.60;;;;;;7373316;19;20410;-44
2022/03/01 00:22:39;;;;;;;21.52;10.15;;;2.90;46.50;;;;;;7376640;19;20146;-45
2022/03/01 00:25:11;;;;;;;18.77;9.50;;;2.80;46.90;;;;;;7377248;19;20135;-44
2022/03/01 00:27:41;;;;;;;20.00;10.90;;;2.80;47.20;;;;;;7366578;19;20151;-44
2022/03/01 00:30:12;;;;;;;21.85;10.00;;;2.80;47.30;;;;;;7372244;19;20139;-44
2022/03/01 00:32:49;;;;;;;12.85;7.18;;;2.80;47.40;;;;;;7374141;19;20203;-44
2022/03/01 00:35:21;;;;;;;14.90;7.95;;;2.80;47.50;;;;;;7362416;19;20191;-44
2022/03/01 00:37:50;;;;;;;9.90;6.40;;;2.80;47.20;;;;;;7375319;19;20676;-44
2022/03/01 00:40:22;;;;;;;12.43;6.72;;;2.70;47.40;;;;;;7370316;19;20174;-44
2022/03/01 00:42:51;;;;;;;16.02;7.18;;;2.70;47.40;;;;;;7376954;19;20128;-45
2022/03/01 00:45:23;;;;;;;15.27;6.97;;;2.80;47.30;;;;;;7363841;19;20219;-45
2022/03/01 00:47:58;;;;;;;11.45;6.38;;;2.70;47.30;;;;;;7364677;19;20158;-46
2022/03/01 00:50:30;;;;;;;11.73;7.80;;;2.70;47.50;;;;;;7371363;19;20127;-45
2022/03/01 00:52:59;;;;;;;9.80;6.43;;;2.70;47.50;;;;;;7373336;19;20635;-44
2022/03/01 00:55:31;;;;;;;12.40;7.93;;;2.70;47.40;;;;;;7374974;19;20135;-44
2022/03/01 00:58:00;;;;;;;13.40;6.75;;;2.80;47.40;;;;;;7373441;19;20136;-44
2022/03/01 01:00:31;;;;;;;16.05;9.13;;;2.70;47.40;;;;;;7371071;19;20127;-46
2022/03/01 01:03:03;;;;;;;14.43;8.50;;;2.60;47.60;;;;;;7374447;19;20139;-46
2022/03/01 01:05:35;;;;;;;16.25;8.38;;;2.50;47.70;;;;;;7369693;19;20139;-44
2022/03/01 01:08:05;;;;;;;17.83;8.82;;;2.50;48.20;;;;;;7373318;19;20136;-44
2022/03/01 01:10:37;;;;;;;18.83;9.52;;;2.60;48.30;;;;;;7372885;19;20178;-44
2022/03/01 01:13:07;;;;;;;14.77;7.97;;;2.50;48.70;;;;;;7371238;19;20135;-45
2022/03/01 01:15:36;;;;;;;12.43;7.82;;;2.40;49.20;;;;;;7366465;19;20139;-44
2022/03/01 01:18:08;;;;;;;13.27;7.32;;;2.30;49.70;;;;;;7374312;19;20138;-45
2022/03/01 01:20:38;;;;;;;11.77;7.22;;;2.30;49.80;;;;;;7370231;19;20502;-45
2022/03/01 01:23:11;;;;;;;14.27;7.88;;;2.30;49.80;;;;;;7370454;19;20151;-45
2022/03/01 01:25:41;;;;;;;18.00;8.52;;;2.30;49.60;;;;;;7372494;19;20127;-46
2022/03/01 01:28:13;;;;;;;14.90;7.95;;;2.30;49.50;;;;;;7371807;19;20166;-44
2022/03/01 01:30:42;;;;;;;12.35;7.35;;;2.30;49.90;;;;;;7364907;19;20199;-45
2022/03/01 01:33:17;;;;;;;10.88;5.85;;;2.30;50.10;;;;;;7361368;19;20155;-45
2022/03/01 01:35:49;;;;;;;10.82;7.43;;;2.20;50.30;;;;;;7359277;19;20231;-44
2022/03/01 01:38:19;;;;;;;14.43;7.18;;;2.20;50.20;;;;;;7362904;19;20510;-45
2022/03/01 01:40:49;;;;;;;15.15;8.38;;;2.10;50.60;;;;;;7372547;19;20771;-44
2022/03/01 01:43:20;;;;;;;16.45;7.85;;;2.10;50.80;;;;;;7372826;19;20582;-44
2022/03/01 01:45:52;;;;;;;13.35;6.63;;;2.00;50.70;;;;;;7367055;19;20131;-45
2022/03/01 01:48:24;;;;;;;15.88;7.30;;;2.00;50.80;;;;;;7370073;19;20127;-45
2022/03/01 01:50:54;;;;;;;15.48;7.57;;;2.00;50.70;;;;;;7370662;19;20195;-45
2022/03/01 01:53:24;;;;;;;11.73;6.85;;;2.10;50.90;;;;;;7371987;19;20134;-44
2022/03/01 01:55:58;;;;;;;15.50;7.05;;;2.10;50.90;;;;;;7364120;19;20652;-46
2022/03/01 01:58:30;;;;;;;13.85;7.03;;;2.10;50.90;;;;;;7370622;19;20130;-44
2022/03/01 02:01:02;;;;;;;14.88;7.10;;;1.80;51.40;;;;;;7365594;19;20210;-44
2022/03/01 02:03:36;;;;;;;11.60;7.00;;;1.70;52.60;;;;;;7364919;19;20155;-44
2022/03/01 02:06:06;;;;;;;12.50;8.13;;;1.70;53.00;;;;;;7372333;19;20143;-45
2022/03/01 02:08:38;;;;;;;16.48;7.93;;;1.60;53.00;;;;;;7374728;19;20628;-45
2022/03/01 02:11:12;;;;;;;13.65;8.15;;;1.60;52.90;;;;;;7357509;19;20123;-45
2022/03/01 02:13:44;;;;;;;12.30;7.32;;;1.60;52.60;;;;;;7370815;19;20131;-45
2022/03/01 02:16:13;;;;;;;12.82;7.45;;;1.60;52.90;;;;;;7370157;19;20127;-45
2022/03/01 02:18:49;;;;;;;12.38;7.20;;;1.60;52.80;;;;;;7373986;19;20150;-45
2022/03/01 02:21:21;;;;;;;12.23;6.40;;;1.60;52.60;;;;;;7359708;19;20641;-45
2022/03/01 02:23:51;;;;;;;11.65;6.55;;;1.60;52.10;;;;;;7359901;19;22058;-45
2022/03/01 02:26:20;;;;;;;12.30;7.18;;;1.50;52.20;;;;;;7359170;19;20735;-45
2022/03/01 02:28:50;;;;;;;13.82;7.80;;;1.40;52.90;;;;;;7359639;19;20127;-45
2022/03/01 02:31:19;;;;;;;11.38;6.63;;;1.30;53.20;;;;;;7363698;19;20120;-44
2022/03/01 02:33:51;;;;;;;12.25;7.05;;;1.30;53.20;;;;;;7368258;19;20151;-44
2022/03/01 02:36:23;;;;;;;11.52;7.05;;;1.20;53.30;;;;;;7372306;19;20124;-44
2022/03/01 02:38:53;;;;;;;13.57;7.28;;;1.30;53.30;;;;;;7372787;19;20150;-46
2022/03/01 02:41:26;;;;;;;14.40;8.07;;;1.30;53.30;;;;;;7365533;19;20132;-45
2022/03/01 02:43:56;;;;;;;11.93;6.95;;;1.30;53.20;;;;;;7371861;19;20143;-42
2022/03/01 02:46:25;;;;;;;13.70;7.70;;;1.20;53.30;;;;;;7370063;19;20643;-42
2022/03/01 02:48:55;;;;;;;15.38;7.47;;;1.10;53.40;;;;;;7368258;19;20150;-45
2022/03/01 02:51:27;;;;;;;14.00;6.90;;;1.10;53.40;;;;;;7372339;19;20592;-45
2022/03/01 02:53:58;;;;;;;11.70;7.68;;;0.90;53.80;;;;;;7365822;19;20171;-43
2022/03/01 02:56:28;;;;;;;13.95;6.82;;;0.90;54.30;;;;;;7360961;19;20132;-45
2022/03/01 02:58:59;;;;;;;11.63;6.93;;;0.80;54.60;;;;;;7369222;19;20124;-43
2022/03/01 03:01:29;;;;;;;9.20;6.10;;;0.80;54.60;;;;;;7365327;19;20142;-44
2022/03/01 03:04:02;;;;;;;13.38;8.00;;;0.80;54.50;;;;;;7365992;19;20127;-43
2022/03/01 03:06:34;;;;;;;13.93;8.18;;;0.90;54.30;;;;;;7369796;19;21069;-44
2022/03/01 03:09:03;;;;;;;10.63;7.65;;;0.90;54.30;;;;;;7368934;19;20127;-44
2022/03/01 03:11:35;;;;;;;11.23;6.47;;;0.80;54.60;;;;;;7369575;19;20136;-44
2022/03/01 03:14:10;;;;;;;12.07;6.00;;;0.80;54.60;;;;;;7363149;19;20127;-44
2022/03/01 03:16:42;;;;;;;12.30;6.47;;;0.80;54.80;;;;;;7371994;19;21158;-45
2022/03/01 03:19:15;;;;;;;11.15;7.20;;;0.90;54.10;;;;;;7369347;19;20598;-44
2022/03/01 03:21:49;;;;;;;14.10;7.60;;;0.80;53.90;;;;;;7364749;19;20610;-44
2022/03/01 03:24:19;;;;;;;14.30;7.85;;;0.70;54.20;;;;;;7364630;19;20622;-44
2022/03/01 03:26:51;;;;;;;13.32;7.05;;;0.70;54.50;;;;;;7371958;19;20140;-44
2022/03/01 03:29:21;;;;;;;15.15;7.85;;;0.60;54.60;;;;;;7365266;19;21762;-44
2022/03/01 03:31:54;;;;;;;15.15;7.80;;;0.60;54.80;;;;;;7371822;19;21054;-44
2022/03/01 03:34:27;;;;;;;11.55;7.03;;;0.70;54.70;;;;;;7362678;19;20159;-44
2022/03/01 03:36:59;;;;;;;12.23;7.50;;;0.70;54.50;;;;;;7375153;19;20135;-45
2022/03/01 03:39:31;;;;;;;15.43;7.60;;;0.80;54.20;;;;;;7367707;19;20130;-44
2022/03/01 03:42:01;;;;;;;14.75;7.38;;;0.80;54.00;;;;;;7374083;19;20552;-44
2022/03/01 03:44:33;;;;;;;12.10;7.25;;;0.70;53.80;;;;;;7373507;19;20127;-44
2022/03/01 03:47:03;;;;;;;17.75;7.88;;;0.70;53.80;;;;;;7366947;19;20250;-44
2022/03/01 03:49:37;;;;;;;11.88;6.57;;;0.80;53.80;;;;;;7375534;19;20146;-44
2022/03/01 03:52:10;;;;;;;12.95;7.53;;;0.70;53.60;;;;;;7372590;19;20128;-43
2022/03/01 03:54:42;;;;;;;12.25;7.30;;;0.70;53.80;;;;;;7370487;19;20135;-44
2022/03/01 03:57:12;;;;;;;10.68;6.55;;;0.70;53.70;;;;;;7375053;19;20855;-44
2022/03/01 03:59:43;;;;;;;18.45;7.50;;;0.70;53.70;;;;;;7378992;19;20127;-44
2022/03/01 04:02:13;;;;;;;14.25;7.60;;;0.70;53.50;;;;;;7373441;19;20132;-43
2022/03/01 04:04:42;;;;;;;9.82;6.20;;;0.70;53.40;;;;;;7370418;19;20140;-44
2022/03/01 04:07:14;;;;;;;14.43;6.90;;;0.70;53.40;;;;;;7378151;19;20138;-43
2022/03/01 04:09:44;;;;;;;13.25;7.57;;;0.70;53.70;;;;;;7377388;19;20153;-44
2022/03/01 04:12:16;;;;;;;9.63;5.40;;;0.60;54.40;;;;;;7366691;19;20131;-44
2022/03/01 04:14:45;;;;;;;13.60;7.18;;;0.60;53.80;;;;;;7363689;19;20123;-44
2022/03/01 04:17:15;;;;;;;10.25;7.35;;;0.60;54.00;;;;;;7367218;19;20668;-43
2022/03/01 04:19:44;;;;;;;15.50;7.68;;;0.60;53.80;;;;;;7371746;19;20245;-43
2022/03/01 04:22:19;;;;;;;13.20;6.65;;;0.70;54.00;;;;;;7364589;19;20132;-44
2022/03/01 04:24:49;;;;;;;21.98;7.20;;;0.70;53.80;;;;;;7370485;19;20127;-43
2022/03/01 04:27:20;;;;;;;12.70;7.30;;;0.70;53.80;;;;;;7367883;19;20135;-43
2022/03/01 04:29:52;;;;;;;14.15;7.00;;;0.70;53.90;;;;;;7369538;19;20795;-44
2022/03/01 04:32:24;;;;;;;12.95;7.15;;;0.50;54.50;;;;;;7364253;19;20895;-42
2022/03/01 04:34:56;;;;;;;13.63;7.22;;;0.60;54.10;;;;;;7372413;19;20172;-42
2022/03/01 04:37:30;;;;;;;10.38;6.72;;;0.50;54.20;;;;;;7373935;19;20124;-42
2022/03/01 04:40:06;;;;;;;12.55;6.40;;;0.50;54.30;;;;;;7375152;19;20139;-42
2022/03/01 04:42:36;;;;;;;13.15;7.68;;;0.50;54.40;;;;;;7365270;19;20243;-42
2022/03/01 04:45:08;;;;;;;14.18;7.38;;;0.40;54.20;;;;;;7371676;19;20132;-42
2022/03/01 04:47:38;;;;;;;13.23;7.45;;;0.40;54.20;;;;;;7378054;19;20147;-42
2022/03/01 04:50:08;;;;;;;11.60;7.18;;;0.40;54.20;;;;;;7373496;19;20128;-43
2022/03/01 04:52:41;;;;;;;10.95;7.03;;;0.30;54.20;;;;;;7374406;19;20131;-43
2022/03/01 04:55:13;;;;;;;13.48;7.57;;;0.30;54.40;;;;;;7371167;19;20560;-43
2022/03/01 04:57:42;;;;;;;19.15;10.07;;;0.40;54.40;;;;;;7368722;19;20135;-44
2022/03/01 05:00:14;;;;;;;16.35;9.48;;;0.60;53.90;;;;;;7370903;19;20132;-44
2022/03/01 05:02:45;;;;;;;20.80;9.73;;;0.80;53.60;;;;;;7365207;19;20153;-44
2022/03/01 05:05:15;;;;;;;49.17;21.70;;;0.90;53.10;;;;;;7372810;19;20135;-44
2022/03/01 05:07:49;;;;;;;32.50;16.60;;;1.00;52.40;;;;;;7372019;19;20131;-44
2022/03/01 05:10:22;;;;;;;18.17;9.80;;;1.10;52.80;;;;;;7373232;19;20665;-44
2022/03/01 05:12:55;;;;;;;15.10;7.43;;;1.00;53.50;;;;;;7372379;19;20132;-44
2022/03/01 05:15:29;;;;;;;13.18;8.02;;;1.00;53.10;;;;;;7375378;19;20520;-44
2022/03/01 05:18:01;;;;;;;12.10;7.35;;;0.90;53.80;;;;;;7380308;19;20151;-44
2022/03/01 05:20:30;;;;;;;12.50;7.35;;;0.70;53.40;;;;;;7376289;19;20139;-44
2022/03/01 05:23:02;;;;;;;14.27;7.15;;;0.50;53.40;;;;;;7373311;19;20154;-44
2022/03/01 05:25:33;;;;;;;14.43;7.90;;;0.40;54.30;;;;;;7362333;19;20545;-45
2022/03/01 05:28:02;;;;;;;13.63;7.45;;;0.30;54.60;;;;;;7361608;19;20606;-43
2022/03/01 05:30:36;;;;;;;13.15;7.30;;;0.20;54.80;;;;;;7365155;19;20131;-44
2022/03/01 05:33:08;;;;;;;11.40;8.30;;;0.30;55.00;;;;;;7365624;19;20190;-44
2022/03/01 05:35:38;;;;;;;16.67;7.70;;;0.30;55.00;;;;;;7361305;19;20167;-44
2022/03/01 05:38:11;;;;;;;20.17;8.45;;;0.30;54.90;;;;;;7370338;19;20761;-44
2022/03/01 05:40:41;;;;;;;21.13;7.85;;;0.30;54.90;;;;;;7372420;19;20131;-44
2022/03/01 05:43:11;;;;;;;14.45;7.60;;;0.50;55.10;;;;;;7377638;19;20132;-44
2022/03/01 05:45:41;;;;;;;10.90;6.70;;;0.60;54.20;;;;;;7373956;19;20504;-44
2022/03/01 05:48:11;;;;;;;14.32;7.88;;;0.60;54.40;;;;;;7372878;19;20160;-44
2022/03/01 05:50:40;;;;;;;14.95;7.82;;;0.50;54.50;;;;;;7375654;19;20139;-43
2022/03/01 05:53:12;;;;;;;11.23;6.05;;;0.40;54.60;;;;;;7375216;19;20615;-43
2022/03/01 05:55:42;;;;;;;12.05;7.63;;;0.30;54.70;;;;;;7376470;19;20725;-43
2022/03/01 05:58:14;;;;;;;14.77;7.32;;;0.20;55.40;;;;;;7377498;19;20128;-43
2022/03/01 06:00:43;;;;;;;11.48;7.30;;;0.20;54.50;;;;;;7376702;19;20131;-43
2022/03/01 06:03:13;;;;;;;10.00;6.75;;;0.20;54.10;;;;;;7371751;19;20146;-43
2022/03/01 06:05:42;;;;;;;13.93;7.30;;;0.30;54.20;;;;;;7375688;19;20165;-44
2022/03/01 06:08:16;;;;;;;11.57;6.95;;;0.20;54.10;;;;;;7376549;19;20160;-43
2022/03/01 06:10:46;;;;;;;16.13;8.60;;;0.30;54.60;;;;;;7376026;19;20191;-43
2022/03/01 06:13:15;;;;;;;14.75;8.30;;;0.20;54.80;;;;;;7378567;19;20134;-43
2022/03/01 06:15:45;;;;;;;14.05;7.95;;;0.20;55.10;;;;;;7373469;19;20140;-43
2022/03/01 06:18:17;;;;;;;15.43;8.95;;;0.20;55.00;;;;;;7377541;19;20127;-44
2022/03/01 06:20:47;;;;;;;24.40;12.70;;;0.30;54.90;;;;;;7374530;19;20132;-44
2022/03/01 06:23:20;;;;;;;12.98;9.10;;;0.30;54.70;;;;;;7373075;19;20629;-44
2022/03/01 06:25:49;;;;;;;22.23;11.55;;;0.40;54.30;;;;;;7372084;19;20145;-44
2022/03/01 06:28:19;;;;;;;21.42;12.07;;;0.50;54.10;;;;;;7373898;19;20499;-44
2022/03/01 06:30:50;;;;;;;22.30;11.50;;;0.50;54.10;;;;;;7372374;19;21109;-44
2022/03/01 06:33:23;;;;;;;19.13;8.68;;;0.40;54.20;;;;;;7365590;19;20164;-44
2022/03/01 06:35:55;;;;;;;14.43;7.65;;;0.50;53.90;;;;;;7371317;19;20560;-44
2022/03/01 06:38:31;;;;;;;17.45;10.48;;;0.50;53.60;;;;;;7375680;19;20611;-44
2022/03/01 06:41:03;;;;;;;23.65;12.63;;;0.50;53.00;;;;;;7372066;19;20126;-44
2022/03/01 06:43:35;;;;;;;19.65;10.30;;;0.60;53.00;;;;;;7373237;19;20230;-44
2022/03/01 06:46:07;;;;;;;16.58;8.57;;;0.70;53.20;;;;;;7372339;19;20155;-44
2022/03/01 06:48:41;;;;;;;12.85;7.22;;;0.70;52.40;;;;;;7371983;19;20133;-45
2022/03/01 06:51:11;;;;;;;13.07;8.60;;;0.80;52.10;;;;;;7373655;19;20608;-44
2022/03/01 06:53:45;;;;;;;17.55;7.57;;;0.80;52.00;;;;;;7374129;19;20604;-43
2022/03/01 06:56:15;;;;;;;16.67;8.48;;;0.90;51.50;;;;;;7369057;19;20645;-45
2022/03/01 06:58:44;;;;;;;15.63;8.35;;;0.90;51.60;;;;;;7373045;19;20789;-43
2022/03/01 07:01:18;;;;;;;16.05;8.35;;;0.90;51.20;;;;;;7372982;19;20161;-44
2022/03/01 07:03:50;;;;;;;15.63;8.30;;;1.00;51.20;;;;;;7375932;19;20132;-44
2022/03/01 07:06:22;;;;;;;13.38;8.70;;;1.00;51.10;;;;;;7369613;19;20140;-44
2022/03/01 07:08:54;;;;;;;17.38;8.95;;;1.00;50.70;;;;;;7373706;19;20136;-44
2022/03/01 07:11:26;;;;;;;19.98;9.40;;;1.10;50.60;;;;;;7377854;19;20150;-44
2022/03/01 07:13:55;;;;;;;15.88;9.48;;;1.10;50.00;;;;;;7382206;19;20150;-44
2022/03/01 07:16:25;;;;;;;20.27;11.38;;;1.20;50.30;;;;;;7364216;19;20123;-43
2022/03/01 07:18:54;;;;;;;14.48;8.70;;;1.20;50.10;;;;;;7380196;19;20151;-44
2022/03/01 07:21:24;;;;;;;15.32;8.95;;;1.20;50.20;;;;;;7380901;19;20716;-43
2022/03/01 07:23:56;;;;;;;15.85;8.35;;;1.20;49.70;;;;;;7378784;19;20124;-43
2022/03/01 07:26:26;;;;;;;15.57;7.75;;;1.30;49.50;;;;;;7373811;19;20131;-43
2022/03/01 07:28:57;;;;;;;11.10;7.25;;;1.30;49.10;;;;;;7379993;19;20132;-43
2022/03/01 07:31:30;;;;;;;16.70;7.57;;;1.30;48.40;;;;;;7378237;19;20223;-43
2022/03/01 07:34:03;;;;;;;15.23;8.32;;;1.30;48.30;;;;;;7373408;19;20156;-44
2022/03/01 07:36:32;;;;;;;14.43;7.05;;;1.30;47.90;;;;;;7381154;19;20142;-42
2022/03/01 07:39:05;;;;;;;18.92;7.93;;;1.30;47.90;;;;;;7378436;19;20135;-43
2022/03/01 07:41:34;;;;;;;11.50;6.60;;;1.40;47.90;;;;;;7379350;19;20131;-43
2022/03/01 07:44:07;;;;;;;16.63;8.15;;;1.50;47.70;;;;;;7382042;19;20142;-43
2022/03/01 07:46:39;;;;;;;12.75;6.70;;;1.60;47.30;;;;;;7377743;19;20497;-43
2022/03/01 07:49:08;;;;;;;9.82;7.90;;;1.70;46.80;;;;;;7371185;19;20495;-44
2022/03/01 07:51:38;;;;;;;12.77;7.80;;;1.70;46.50;;;;;;7380051;19;20140;-43
2022/03/01 07:54:12;;;;;;;15.88;7.95;;;1.80;46.50;;;;;;7378862;19;20128;-43
2022/03/01 07:56:42;;;;;;;15.68;7.25;;;1.80;46.40;;;;;;7378541;19;20634;-43
2022/03/01 07:59:12;;;;;;;16.00;7.95;;;2.00;46.30;;;;;;7379082;19;20548;-44
2022/03/01 08:01:41;;;;;;;10.65;7.45;;;2.10;45.90;;;;;;7379739;19;20135;-44
2022/03/01 08:04:11;;;;;;;11.82;6.90;;;2.20;45.80;;;;;;7375527;19;20135;-43
2022/03/01 08:06:40;;;;;;;14.35;8.43;;;2.30;45.50;;;;;;7378635;19;20204;-43
2022/03/01 08:09:15;;;;;;;16.15;8.15;;;2.20;45.20;;;;;;7379084;19;20134;-43
2022/03/01 08:11:45;;;;;;;13.10;8.63;;;2.30;45.50;;;;;;7374799;19;20538;-43
2022/03/01 08:14:14;;;;;;;14.48;8.18;;;2.30;44.90;;;;;;7380706;19;20158;-42
2022/03/01 08:16:44;;;;;;;15.50;8.55;;;2.50;46.10;;;;;;7379283;19;20165;-43
2022/03/01 08:19:15;;;;;;;12.38;7.45;;;2.90;45.40;;;;;;7380288;19;20597;-42
2022/03/01 08:21:45;;;;;;;12.98;8.05;;;3.60;43.60;;;;;;7378604;19;20510;-44
2022/03/01 08:24:19;;;;;;;13.27;8.35;;;4.30;42.80;;;;;;7379183;19;20766;-44
2022/03/01 08:26:49;;;;;;;14.68;8.93;;;5.00;41.50;;;;;;7373948;19;20148;-44
2022/03/01 08:29:18;;;;;;;13.27;8.00;;;5.30;40.10;;;;;;7379190;19;20131;-44
2022/03/01 08:31:50;;;;;;;12.98;8.23;;;5.90;39.30;;;;;;7376565;19;20633;-44
2022/03/01 08:34:20;;;;;;;12.25;9.00;;;6.40;37.90;;;;;;7377712;19;20151;-45
2022/03/01 08:36:51;;;;;;;13.82;8.77;;;6.50;36.70;;;;;;7380578;19;20135;-43
2022/03/01 08:39:23;;;;;;;13.27;8.43;;;6.10;36.20;;;;;;7376793;19;20139;-44
2022/03/01 08:41:56;;;;;;;13.48;8.68;;;6.10;36.90;;;;;;7375906;19;20582;-46
2022/03/01 08:44:26;;;;;;;12.23;8.40;;;6.50;36.70;;;;;;7380167;19;20123;-44
2022/03/01 08:46:57;;;;;;;13.32;8.60;;;6.60;35.70;;;;;;7374718;19;20163;-44
2022/03/01 08:49:29;;;;;;;12.43;8.93;;;6.30;35.70;;;;;;7380143;19;20613;-44
2022/03/01 08:52:01;;;;;;;15.63;9.07;;;5.90;36.60;;;;;;7380216;19;20183;-44
2022/03/01 08:54:33;;;;;;;13.80;9.48;;;5.80;36.90;;;;;;7379520;19;20131;-44
2022/03/01 08:57:03;;;;;;;14.38;8.85;;;5.90;36.80;;;;;;7376465;19;20131;-44
2022/03/01 08:59:32;;;;;;;14.73;9.45;;;5.80;37.00;;;;;;7376817;19;20140;-45
2022/03/01 09:02:02;;;;;;;13.98;8.75;;;6.50;35.90;;;;;;7377742;19;20475;-45
2022/03/01 09:04:34;;;;;;;11.98;7.97;;;7.60;35.00;;;;;;7380623;19;20138;-45
2022/03/01 09:07:03;;;;;;;16.70;9.10;;;8.90;32.60;;;;;;7380590;19;20132;-45
2022/03/01 09:09:36;;;;;;;13.40;8.73;;;9.70;30.60;;;;;;7379118;19;20376;-45
2022/03/01 09:12:10;;;;;;;10.07;7.47;;;10.30;29.50;;;;;;7372895;19;20399;-45
2022/03/01 09:14:42;;;;;;;11.37;7.77;;;11.40;28.50;;;;;;7376784;19;20380;-45
2022/03/01 09:17:11;;;;;;;10.70;7.50;;;11.70;27.20;;;;;;7372328;19;20364;-45
2022/03/01 09:19:41;;;;;;;12.20;8.20;;;12.50;27.00;;;;;;7374752;19;20890;-45
2022/03/01 09:22:13;;;;;;;13.47;8.70;;;12.20;26.40;;;;;;7376336;19;20879;-46
2022/03/01 09:24:46;;;;;;;10.30;8.23;;;12.90;26.30;;;;;;7370534;19;20853;-46
2022/03/01 09:27:15;;;;;;;13.33;9.10;;;14.00;25.40;;;;;;7369402;19;20375;-47
2022/03/01 09:29:45;;;;;;;12.80;8.63;;;13.60;24.30;;;;;;7372206;19;20992;-46
2022/03/01 09:32:16;;;;;;;11.20;8.67;;;13.80;24.90;;;;;;7374243;19;20919;-46
2022/03/01 09:34:50;;;;;;;13.63;7.97;;;14.70;23.60;;;;;;7372722;19;20433;-46
2022/03/01 09:37:20;;;;;;;10.80;8.33;;;15.40;23.10;;;;;;7375857;19;20762;-46
2022/03/01 09:39:56;;;;;;;11.63;8.50;;;15.60;22.40;;;;;;7377391;19;20363;-46
2022/03/01 09:42:27;;;;;;;10.63;8.43;;;15.90;22.20;;;;;;7370670;19;20372;-47
2022/03/01 09:45:00;;;;;;;10.83;7.80;;;16.80;21.70;;;;;;7374659;19;20419;-47
2022/03/01 09:47:32;;;;;;;10.00;8.13;;;16.40;21.20;;;;;;7375265;19;20984;-47
2022/03/01 09:50:05;;;;;;;10.97;8.80;;;16.80;20.70;;;;;;7376712;19;20414;-47
2022/03/01 09:52:35;;;;;;;11.10;8.50;;;15.40;21.30;;;;;;7376358;19;20373;-46
2022/03/01 09:55:11;;;;;;;11.03;9.00;;;15.70;21.50;;;;;;7376727;19;20372;-47
2022/03/01 09:57:41;;;;;;;13.27;9.57;;;17.20;21.00;;;;;;7370199;19;20945;-47
2022/03/01 10:00:12;;;;;;;12.83;8.67;;;17.70;20.50;;;;;;7375603;19;20391;-46
2022/03/01 10:02:44;;;;;;;11.93;8.27;;;18.80;19.80;;;;;;7375033;19;20416;-46
2022/03/01 10:05:16;;;;;;;10.80;8.23;;;19.10;19.00;;;;;;7372049;19;21227;-46
2022/03/01 10:07:48;;;;;;;8.83;7.93;;;19.20;18.90;;;;;;7375078;19;20367;-46
2022/03/01 10:10:22;;;;;;;10.50;8.60;;;18.60;18.60;;;;;;7377380;19;20986;-46
2022/03/01 10:12:56;;;;;;;12.10;9.20;;;18.60;18.80;;;;;;7377079;19;20375;-46
2022/03/01 10:15:32;;;;;;;13.23;8.93;;;18.30;19.00;;;;;;7372523;19;20380;-46
2022/03/01 10:18:11;;;;;;;10.60;8.60;;;18.50;18.80;;;;;;7378122;19;20726;-47
2022/03/01 10:20:41;;;;;;;9.73;8.73;;;19.10;17.80;;;;;;7372970;19;20431;-47
2022/03/01 10:23:12;;;;;;;12.33;8.60;;;20.00;18.20;;;;;;7374708;19;20449;-47
2022/03/01 10:25:46;;;;;;;9.80;8.20;;;20.60;16.80;;;;;;7371886;19;20998;-48
2022/03/01 10:28:16;;;;;;;10.87;8.33;;;20.40;17.00;;;;;;7374909;19;20501;-48
2022/03/01 10:30:45;;;;;;;12.40;8.50;;;20.20;17.40;;;;;;7374872;19;20428;-47
2022/03/01 10:33:20;;;;;;;12.60;8.67;;;20.50;17.40;;;;;;7365684;19;20392;-47
2022/03/01 10:36:01;;;;;;;8.90;6.97;;;19.90;16.80;;;;;;7375130;19;20443;-47
2022/03/01 10:38:38;;;;;;;12.73;9.07;;;20.30;17.20;;;;;;7375502;19;20395;-48
2022/03/01 10:41:11;;;;;;;12.17;9.17;;;21.30;17.30;;;;;;7375191;19;20726;-48
2022/03/01 10:43:40;;;;;;;11.57;8.40;;;22.30;16.30;;;;;;7374288;19;20914;-48
2022/03/01 10:46:10;;;;;;;9.40;8.30;;;22.80;16.00;;;;;;7372002;19;20383;-48
2022/03/01 10:48:41;;;;;;;10.90;8.17;;;23.40;15.40;;;;;;7369014;19;20376;-48
2022/03/01 10:51:19;;;;;;;16.63;8.50;;;23.20;15.30;;;;;;7376492;19;21223;-48
2022/03/01 10:53:48;;;;;;;10.57;7.80;;;23.20;15.60;;;;;;7375386;19;20377;-49
2022/03/01 10:56:20;;;;;;;11.40;7.80;;;24.50;15.30;;;;;;7375002;19;20383;-49
2022/03/01 10:58:56;;;;;;;10.90;8.60;;;25.00;14.60;;;;;;7372392;19;20387;-49
2022/03/01 11:01:27;;;;;;;8.27;7.27;;;24.30;14.90;;;;;;7372647;19;20384;-49
2022/03/01 11:03:56;;;;;;;9.77;8.03;;;24.50;14.70;;;;;;7371469;19;20384;-48
2022/03/01 11:06:31;;;;;;;9.90;7.40;;;24.40;15.00;;;;;;7375629;19;20413;-48
2022/03/01 11:09:05;;;;;;;10.80;9.20;;;24.50;14.90;;;;;;7373387;19;20397;-49
2022/03/01 11:11:39;;;;;;;10.93;8.17;;;23.70;14.60;;;;;;7372448;19;20368;-49
2022/03/01 11:14:09;;;;;;;8.63;7.30;;;25.30;14.50;;;;;;7373699;19;20475;-49
2022/03/01 11:16:52;;;;;;;10.70;7.80;;;27.00;13.80;;;;;;7373845;19;20401;-49
2022/03/01 11:19:49;;;;;;;11.87;7.97;;;27.70;13.00;;;;;;7372816;19;20909;-49
2022/03/01 11:22:22;;;;;;;8.47;7.67;;;28.00;12.50;;;;;;7371976;19;20762;-49
2022/03/01 11:24:52;;;;;;;10.17;8.90;;;28.10;12.70;;;;;;7372537;19;20395;-49
2022/03/01 11:27:29;;;;;;;9.77;8.30;;;28.20;12.90;;;;;;7373138;19;20383;-49
2022/03/01 11:30:10;;;;;;;9.50;8.50;;;29.00;12.60;;;;;;7375176;19;21306;-49
2022/03/01 11:32:42;;;;;;;9.47;7.43;;;29.70;12.10;;;;;;7371226;19;20376;-50
2022/03/01 11:35:20;;;;;;;10.77;8.80;;;30.20;11.90;;;;;;7373109;19;20508;-49
2022/03/01 11:38:06;;;;;;;9.47;7.47;;;30.20;11.40;;;;;;7370463;19;20411;-49
2022/03/01 11:40:37;;;;;;;8.00;7.20;;;;;;;;;;7374364;19;20770;-49
2022/03/01 11:43:14;;;;;;;7.97;7.13;;;;;;;;;;7370135;19;20373;-49
2022/03/01 11:45:50;;;;;;;7.97;7.00;;;;;;;;;;7372682;19;20380;-49
2022/03/01 11:48:21;;;;;;;10.70;7.93;;;;;;;;;;7369161;19;20662;-49
2022/03/01 11:50:58;;;;;;;8.00;7.20;;;;;;;;;;7372328;19;20442;-49
2022/03/01 11:53:29;;;;;;;9.37;6.87;;;;;;;;;;7366642;19;20411;-49
2022/03/01 11:56:00;;;;;;;8.73;6.87;;;30.00;11.80;;;;;;7371888;19;20420;-49
2022/03/01 11:58:37;;;;;;;10.50;7.17;;;29.50;11.20;;;;;;7381341;19;20371;-49
2022/03/01 12:01:08;;;;;;;7.37;6.67;;;28.20;11.10;;;;;;7378998;19;20468;-49
2022/03/01 12:03:41;;;;;;;7.57;6.20;;;28.40;10.80;;;;;;7379620;19;20468;-49
2022/03/01 12:06:11;;;;;;;9.57;8.57;;;28.20;11.30;;;;;;7376404;19;20368;-49
2022/03/01 12:08:41;;;;;;;7.77;6.97;;;28.70;11.40;;;;;;7380008;19;21017;-48
2022/03/01 12:11:12;;;;;;;10.40;9.07;;;30.10;11.00;;;;;;7379021;19;20424;-48
2022/03/01 12:13:45;;;;;;;9.33;7.17;;;29.90;10.90;;;;;;7378181;19;20368;-48
2022/03/01 12:16:30;;;;;;;7.97;7.20;;;28.00;11.90;;;;;;7380275;19;20360;-49
2022/03/01 12:19:09;;;;;;;9.43;7.30;;;27.50;12.40;;;;;;7381424;19;20375;-49
2022/03/01 12:21:39;;;;;;;7.40;6.70;;;28.30;12.10;;;;;;7375268;19;20958;-48
2022/03/01 12:24:09;;;;;;;9.40;8.07;;;27.80;12.40;;;;;;7378476;19;20384;-48
2022/03/01 12:26:46;;;;;;;10.83;7.73;;;27.60;12.60;;;;;;7379340;19;21827;-48
2022/03/01 12:29:21;;;;;;;8.10;6.97;;;27.40;12.50;;;;;;7377072;19;20375;-48
2022/03/01 12:32:01;;;;;;;8.17;7.07;;;27.90;12.40;;;;;;7379319;19;20428;-49
2022/03/01 12:34:32;;;;;;;10.30;6.90;;;28.20;12.30;;;;;;7376628;19;20813;-49
2022/03/01 12:37:06;;;;;;;10.33;7.23;;;28.40;12.30;;;;;;7377234;19;20488;-48
2022/03/01 12:39:36;;;;;;;9.17;7.83;;;29.10;12.20;;;;;;7378123;19;20409;-48
2022/03/01 12:42:09;;;;;;;7.80;7.10;;;29.60;11.60;;;;;;7376909;19;20388;-49
2022/03/01 12:44:46;;;;;;;10.07;7.43;;;29.50;11.40;;;;;;7372734;19;20724;-48
2022/03/01 12:47:20;;;;;;;8.30;7.10;;;30.50;11.70;;;;;;7380550;19;20372;-48
2022/03/01 12:49:52;;;;;;;8.27;7.43;;;31.00;10.80;;;;;;7376949;19;20407;-48
2022/03/01 12:52:25;;;;;;;10.93;8.23;;;30.90;11.10;;;;;;7378825;19;20890;-49
2022/03/01 12:54:55;;;;;;;8.97;6.93;;;31.00;11.00;;;;;;7377848;19;21026;-49
2022/03/01 12:57:24;;;;;;;9.70;6.70;;;30.70;11.20;;;;;;7376850;19;21170;-48
2022/03/01 12:59:57;;;;;;;7.57;6.87;;;30.40;11.20;;;;;;7375619;19;20933;-49
2022/03/01 13:02:26;;;;;;;8.27;6.90;;;29.50;11.50;;;;;;7380483;19;20423;-49
2022/03/01 13:04:57;;;;;;;8.50;7.13;;;28.80;11.90;;;;;;7375720;19;20802;-49
2022/03/01 13:07:32;;;;;;;7.73;6.30;;;27.60;12.20;;;;;;7376645;19;20993;-49
2022/03/01 13:10:05;;;;;;;8.83;6.67;;;26.60;12.80;;;;;;7376914;19;20379;-49